Aérodrome :







RETROUVEZ-NOUS SUR...

 
LOGIN :

S'inscrire | Disclaimer

   EN    FR    IT 

 









Légende :    VFR   VFR Marginal   IFR   IFR Intensif   IFR Très Intensif
Visi : 
Plafond : 
>= 8 km
>= 3000ft
5 à 8 km
1000 à 3000 ft
1500m à 5 km
500 à 1000 ft
800 à 1500m
200 à 500 ft
< 800m
< 200 ft
Symboles :   Orages  Brouillard  Fortes neiges  Fortes précipitations  Vent > 20 kt






- Altitude de l'aérodrome : 121 ft
- Code IATA : YBX


CYBX - Lourdes De Blanc Sablon

DERNIER METAR :
  • 090413Z 26005KT 6SM BR SCT006 BKN016 BKN050 OVC100 11/10 A3002 RMK ST3SC2SC2AC1 SLP168

METARs EXPIRÉS :
  • 090334Z 21005KT 6SM BR OVC007 12/11 A3002 RMK ST8 SLP170
  • 090314Z 24004KT 6SM BR BKN009 OVC020 12/11 A3002 RMK ST5SC2 SLP168
  • 090300Z 24005KT 15SM MIFG SCT011 OVC020 12/10 A3002 RMK ST3SC5 SLP169
  • 090200Z 22005KT 15SM SCT014 OVC040 13/11 A3002 RMK SC3SC5 SLP169

TAF AMD TAF CYBX
Valide du 09 à 03h jusqu'au 09 à 14h UTC


090332Z 0903/0914 23005KT 6SM BR SCT005 OVC010
TEMPO 0903/0906 2SM BR OVC005
FM090600 22010KT 1/2SM -DZ FG VV002
TEMPO 0906/0914 2SM -RA BR OVC004 RMK NXT FCST BY 090800Z
FIR CZUL / Amérique du Nord



MET'MAP, la Météo Aéronautique d'un coup d'oeil ! - Copyright ORBIFLY Décembre 2007 - Disclaimer

ORBIFLY MET'MAP TEAM :

Programmation & Développement : Alexandra Zaïnal
Sur une idée originale de : Baudouin d'Aumeries
Assistance à la programmation : Marc-Olivier Méhu
Soutien technique & logistique : Manuel Goepfert

Contact : metmap@orbifly.com




SOURCES & CREDITS :

   NOAA